WetterOnline ( https://www.wetteronline.de )

Wetter aktuell Hagen

Aktuelles Wetter: Lüdenscheid (392m)

6-stündlich | Neueste Meldungen
Ortszeit Temperatur Wetter
Mi, 17.04. 14:00 5.9° C bewölkt
Mi, 17.04. 8:00 2.7° C bewölkt
Mi, 17.04. 2:00 4.4° C bewölkt
Di, 16.04. 20:00 6.4° C wolkig
Di, 16.04. 14:00 7.4° C bewölkt
Di, 16.04. 8:00 3.1° C Regen
Di, 16.04. 2:00 3.5° C bewölkt
Mo, 15.04. 20:00 3.4° C bewölkt
Ortszeit Temperatur Wetter
Mi, 17.04. 16:30 5.2° C bewölkt
Mi, 17.04. 16:20 5.2° C bewölkt
Mi, 17.04. 16:10 5.4° C bewölkt
Mi, 17.04. 16:00 5.3° C wolkig
Mi, 17.04. 15:50 5.3° C wolkig
Mi, 17.04. 15:40 5.1° C leichter Regen
Mi, 17.04. 15:30 5.3° C bewölkt
Mi, 17.04. 15:00 6.1° C wolkig
Mi, 17.04. 14:30 5.9° C bewölkt
Mi, 17.04. 14:00 5.9° C bewölkt
Mi, 17.04. 13:30 3.6° C leichter Regen
Ortszeit Relative Feuchte Sichtweite
Mi, 17.04. 14:00 91% 65 km
Mi, 17.04. 8:00 96% 7 km
Mi, 17.04. 2:00 93% 18 km
Di, 16.04. 20:00 77% >70 km
Di, 16.04. 14:00 87% 45 km
Di, 16.04. 8:00 94% 28 km
Di, 16.04. 2:00 90% 30 km
Mo, 15.04. 20:00 92% 35 km
Ortszeit Relative Feuchte Sichtweite
Mi, 17.04. 16:30 82% 50 km
Mi, 17.04. 16:20 82% -
Mi, 17.04. 16:10 79% -
Mi, 17.04. 16:00 72% >70 km
Mi, 17.04. 15:50 72% -
Mi, 17.04. 15:40 71% -
Mi, 17.04. 15:30 74% 55 km
Mi, 17.04. 15:00 74% >70 km
Mi, 17.04. 14:30 78% 45 km
Mi, 17.04. 14:00 91% 65 km
Mi, 17.04. 13:30 91% 7 km
Ortszeit Niederschlagsmenge Niederschlagsart
Mi, 17.04. 14:00 2 l/m2 in 6 Std. Regen
Mi, 17.04. 8:00 5 l/m2 in 12 Std. -
Mi, 17.04. 2:00 5 l/m2 in 6 Std. Regen
Di, 16.04. 20:00 10 l/m2 in 12 Std. Regen
Di, 16.04. 14:00 9 l/m2 in 6 Std. Schnee, Regen
Di, 16.04. 8:00 1 l/m2 in 12 Std. Regen
Di, 16.04. 2:00 0.1 l/m2 in 6 Std. Regen
Mo, 15.04. 20:00 6 l/m2 in 12 Std. Regen
Ortszeit Niederschlagsmenge Niederschlagsart
Mi, 17.04. 16:30 0.0 l/m2 in 30 Min -
Mi, 17.04. 16:20 keine Meldung -
Mi, 17.04. 16:10 keine Meldung -
Mi, 17.04. 16:00 <0.05 l/m2 in 1 Std. Regen
Mi, 17.04. 15:50 keine Meldung -
Mi, 17.04. 15:40 keine Meldung -
Mi, 17.04. 15:30 0.0 l/m2 in 30 Min -
Mi, 17.04. 15:00 0.0 l/m2 in 1 Std. -
Mi, 17.04. 14:30 0.0 l/m2 in 30 Min -
Mi, 17.04. 14:00 0.1 l/m2 in 1 Std. Regen
Mi, 17.04. 13:30 0.1 l/m2 in 30 Min -
Ortszeit Stärke Spitze Richtung
km/h Bft. km/h Grad Sektor
Mi, 17.04. 14:00 9 2 26 290° W
Mi, 17.04. 8:00 11 2 22 280° W
Mi, 17.04. 2:00 6 1 37 280° W
Di, 16.04. 20:00 7 2 43 290° W
Di, 16.04. 14:00 25 4 61 280° W
Di, 16.04. 8:00 24 4 52 240° SW
Di, 16.04. 2:00 26 4 54 240° SW
Mo, 15.04. 20:00 22 4 76 250° W
Ortszeit Stärke Spitze Richtung
km/h Bft. km/h Grad Sektor
Mi, 17.04. 16:30 18 3 25 260° W
Mi, 17.04. 16:20 18 3 - 260° W
Mi, 17.04. 16:10 13 3 - 260° W
Mi, 17.04. 16:00 11 2 29 290° W
Mi, 17.04. 15:50 11 2 - 290° W
Mi, 17.04. 15:40 13 3 - 280° W
Mi, 17.04. 15:30 15 3 30 290° W
Mi, 17.04. 15:00 7 2 25 290° W
Mi, 17.04. 14:30 9 2 20 300° NW
Mi, 17.04. 14:00 9 2 26 290° W
Mi, 17.04. 13:30 17 3 26 290° W
Ortszeit Untergrenze Bedeckung Gattung
total tief tief mittel hoch
Mi, 17.04. 14:00 240 m 7/8 7/8 - - -
Mi, 17.04. 8:00 120 m 7/8 7/8 - - -
Mi, 17.04. 2:00 210 m 7/8 7/8 - - -
Di, 16.04. 20:00 1470 m 8/8 2/8 - - -
Di, 16.04. 14:00 330 m 7/8 7/8 - - -
Di, 16.04. 8:00 240 m 8/8 8/8 - - -
Di, 16.04. 2:00 330 m 7/8 7/8 - - -
Mo, 15.04. 20:00 270 m 7/8 7/8 - - -
Ortszeit Bedeckungsgrad in Achtel und Wolkenuntergrenze
Mi, 17.04. 16:30 2(570m) 6(1800m) 7(3300m)
Mi, 17.04. 16:20 2(570m) 6(1800m) 7(3300m)
Mi, 17.04. 16:10 7
Mi, 17.04. 16:00 3(1500m) 5(2400m)
Mi, 17.04. 15:50 3(1500m) 5(2400m)
Mi, 17.04. 15:40 5
Mi, 17.04. 15:30 4(750m) 7(1500m) 7(4200m)
Mi, 17.04. 15:00 4(630m) 7(3600m) 7(4200m)
Mi, 17.04. 14:30 3(450m) 6(1800m) 8(3600m)
Mi, 17.04. 14:00 6(240m) 7(480m) 7(750m)
Mi, 17.04. 13:30 1(30m) 7(420m) 8(2100m)
Ortszeit Luftdruck NN (hPa) Tendenz (hPa in 3 Std.)
Mi, 17.04. 14:00 1011 0,0
Mi, 17.04. 8:00 1011 + 0,5
Mi, 17.04. 2:00 1010 + 1,3
Di, 16.04. 20:00 1006 + 1,6
Di, 16.04. 14:00 1000 + 1,5
Di, 16.04. 8:00 1002 - 0,9
Di, 16.04. 2:00 1004 - 0,7
Mo, 15.04. 20:00 1004 + 1,6
Ortszeit Luftdruck NN (hPa) Tendenz (hPa in 3 Std.)
Mi, 17.04. 16:30 1011 - 0,3
Mi, 17.04. 16:20 1011 keine Meldung
Mi, 17.04. 16:10 1011 keine Meldung
Mi, 17.04. 16:00 1011 - 0,2
Mi, 17.04. 15:50 1011 keine Meldung
Mi, 17.04. 15:40 1011 keine Meldung
Mi, 17.04. 15:30 1011 - 0,2
Mi, 17.04. 15:00 1011 - 0,4
Mi, 17.04. 14:30 1011 - 0,3
Mi, 17.04. 14:00 1011 0,0
Mi, 17.04. 13:30 1011 + 0,1
Ortszeit Schneehöhe (cm)
Mi, 17.04. 14:00 0
Mi, 17.04. 8:00 0
Mi, 17.04. 2:00 0
Di, 16.04. 20:00 0
Di, 16.04. 14:00 0
Di, 16.04. 8:00 0
Di, 16.04. 2:00 0
Mo, 15.04. 20:00 0
Ortszeit Schneehöhe (cm)
Mi, 17.04. 16:30 0
Mi, 17.04. 16:20 0
Mi, 17.04. 16:10 -
Mi, 17.04. 16:00 0
Mi, 17.04. 15:50 0
Mi, 17.04. 15:40 -
Mi, 17.04. 15:30 0
Mi, 17.04. 15:00 0
Mi, 17.04. 14:30 0
Mi, 17.04. 14:00 0
Mi, 17.04. 13:30 0
Link zu dieser Seite / Seite empfehlen

Das Wetter in ...